sensor_id;sensor_type;location;lat;lon;timestamp;P1;durP1;ratioP1;P2;durP2;ratioP2
68680;SDS011;55836;49.858;6.756;2023-06-22T00:01:52;12.57;;;11.37;;
68680;SDS011;55836;49.858;6.756;2023-06-22T00:04:18;14.00;;;12.13;;
68680;SDS011;55836;49.858;6.756;2023-06-22T00:06:44;13.60;;;12.30;;
68680;SDS011;55836;49.858;6.756;2023-06-22T00:09:10;14.20;;;12.87;;
68680;SDS011;55836;49.858;6.756;2023-06-22T00:11:37;14.60;;;13.23;;
68680;SDS011;55836;49.858;6.756;2023-06-22T00:14:03;13.43;;;12.03;;
68680;SDS011;55836;49.858;6.756;2023-06-22T00:16:29;14.57;;;13.20;;
68680;SDS011;55836;49.858;6.756;2023-06-22T00:18:55;16.03;;;14.50;;
68680;SDS011;55836;49.858;6.756;2023-06-22T00:21:23;15.37;;;13.83;;
68680;SDS011;55836;49.858;6.756;2023-06-22T00:23:49;14.20;;;13.00;;
68680;SDS011;55836;49.858;6.756;2023-06-22T00:26:15;13.33;;;12.13;;
68680;SDS011;55836;49.858;6.756;2023-06-22T00:28:42;14.43;;;13.13;;
68680;SDS011;55836;49.858;6.756;2023-06-22T00:31:08;14.17;;;12.77;;
68680;SDS011;55836;49.858;6.756;2023-06-22T00:33:34;12.83;;;11.57;;
68680;SDS011;55836;49.858;6.756;2023-06-22T00:36:00;14.93;;;13.43;;
68680;SDS011;55836;49.858;6.756;2023-06-22T00:38:28;14.17;;;12.90;;
68680;SDS011;55836;49.858;6.756;2023-06-22T00:40:54;14.47;;;13.17;;
68680;SDS011;55836;49.858;6.756;2023-06-22T00:43:20;15.40;;;13.90;;
68680;SDS011;55836;49.858;6.756;2023-06-22T00:45:46;15.87;;;14.37;;
68680;SDS011;55836;49.858;6.756;2023-06-22T00:48:12;16.50;;;14.97;;
68680;SDS011;55836;49.858;6.756;2023-06-22T00:50:39;16.50;;;14.83;;
68680;SDS011;55836;49.858;6.756;2023-06-22T00:53:06;16.17;;;14.63;;
68680;SDS011;55836;49.858;6.756;2023-06-22T00:55:37;17.23;;;15.43;;
68680;SDS011;55836;49.858;6.756;2023-06-22T00:58:04;16.10;;;14.53;;
68680;SDS011;55836;49.858;6.756;2023-06-22T01:00:33;18.97;;;14.60;;
68680;SDS011;55836;49.858;6.756;2023-06-22T01:02:59;15.60;;;14.07;;
68680;SDS011;55836;49.858;6.756;2023-06-22T01:05:25;16.17;;;14.67;;
68680;SDS011;55836;49.858;6.756;2023-06-22T01:07:58;16.87;;;15.30;;
68680;SDS011;55836;49.858;6.756;2023-06-22T01:10:43;16.27;;;14.77;;
68680;SDS011;55836;49.858;6.756;2023-06-22T01:15:42;16.13;;;14.67;;
68680;SDS011;55836;49.858;6.756;2023-06-22T01:18:11;16.37;;;14.80;;
68680;SDS011;55836;49.858;6.756;2023-06-22T01:20:38;15.80;;;14.27;;
68680;SDS011;55836;49.858;6.756;2023-06-22T01:23:21;15.63;;;14.03;;
68680;SDS011;55836;49.858;6.756;2023-06-22T01:26:02;16.73;;;15.23;;
68680;SDS011;55836;49.858;6.756;2023-06-22T01:28:46;16.37;;;14.87;;
68680;SDS011;55836;49.858;6.756;2023-06-22T01:31:16;17.37;;;15.87;;
68680;SDS011;55836;49.858;6.756;2023-06-22T01:33:43;16.50;;;15.00;;
68680;SDS011;55836;49.858;6.756;2023-06-22T01:36:10;16.43;;;14.83;;
68680;SDS011;55836;49.858;6.756;2023-06-22T01:38:37;17.00;;;15.47;;
68680;SDS011;55836;49.858;6.756;2023-06-22T01:41:03;19.27;;;17.40;;
68680;SDS011;55836;49.858;6.756;2023-06-22T01:43:29;19.10;;;17.30;;
68680;SDS011;55836;49.858;6.756;2023-06-22T01:45:56;19.13;;;17.33;;
68680;SDS011;55836;49.858;6.756;2023-06-22T01:48:22;18.13;;;16.43;;
68680;SDS011;55836;49.858;6.756;2023-06-22T01:50:50;15.50;;;14.17;;
68680;SDS011;55836;49.858;6.756;2023-06-22T01:53:22;16.23;;;14.63;;
68680;SDS011;55836;49.858;6.756;2023-06-22T01:55:48;16.67;;;14.97;;
68680;SDS011;55836;49.858;6.756;2023-06-22T01:58:15;15.97;;;14.37;;
68680;SDS011;55836;49.858;6.756;2023-06-22T02:00:44;15.63;;;14.23;;
68680;SDS011;55836;49.858;6.756;2023-06-22T02:03:14;15.60;;;13.90;;
68680;SDS011;55836;49.858;6.756;2023-06-22T02:05:43;15.90;;;14.43;;
68680;SDS011;55836;49.858;6.756;2023-06-22T02:08:11;14.83;;;13.40;;
68680;SDS011;55836;49.858;6.756;2023-06-22T02:10:42;16.73;;;15.00;;
68680;SDS011;55836;49.858;6.756;2023-06-22T02:13:08;15.50;;;14.00;;
68680;SDS011;55836;49.858;6.756;2023-06-22T02:15:35;15.23;;;13.83;;
68680;SDS011;55836;49.858;6.756;2023-06-22T02:18:02;16.10;;;14.60;;
68680;SDS011;55836;49.858;6.756;2023-06-22T02:20:28;16.60;;;14.90;;
68680;SDS011;55836;49.858;6.756;2023-06-22T02:22:54;17.43;;;15.67;;
68680;SDS011;55836;49.858;6.756;2023-06-22T02:25:20;16.60;;;14.67;;
68680;SDS011;55836;49.858;6.756;2023-06-22T02:27:46;16.80;;;15.10;;
68680;SDS011;55836;49.858;6.756;2023-06-22T02:30:12;15.90;;;14.23;;
68680;SDS011;55836;49.858;6.756;2023-06-22T02:32:40;16.57;;;14.93;;
68680;SDS011;55836;49.858;6.756;2023-06-22T02:35:07;15.90;;;14.37;;
68680;SDS011;55836;49.858;6.756;2023-06-22T02:37:33;16.80;;;15.10;;
68680;SDS011;55836;49.858;6.756;2023-06-22T02:40:01;17.10;;;15.50;;
68680;SDS011;55836;49.858;6.756;2023-06-22T02:42:28;15.63;;;14.03;;
68680;SDS011;55836;49.858;6.756;2023-06-22T02:44:54;16.17;;;14.70;;
68680;SDS011;55836;49.858;6.756;2023-06-22T02:47:20;16.13;;;14.53;;
68680;SDS011;55836;49.858;6.756;2023-06-22T02:49:46;16.77;;;15.10;;
68680;SDS011;55836;49.858;6.756;2023-06-22T02:52:12;17.33;;;15.60;;
68680;SDS011;55836;49.858;6.756;2023-06-22T02:54:38;16.47;;;14.87;;
68680;SDS011;55836;49.858;6.756;2023-06-22T02:57:04;15.80;;;14.40;;
68680;SDS011;55836;49.858;6.756;2023-06-22T02:59:30;16.53;;;14.70;;
68680;SDS011;55836;49.858;6.756;2023-06-22T03:01:56;16.63;;;15.13;;
68680;SDS011;55836;49.858;6.756;2023-06-22T03:04:22;15.87;;;14.47;;
68680;SDS011;55836;49.858;6.756;2023-06-22T03:06:48;18.47;;;16.67;;
68680;SDS011;55836;49.858;6.756;2023-06-22T03:09:15;17.03;;;15.47;;
68680;SDS011;55836;49.858;6.756;2023-06-22T03:11:42;17.43;;;15.53;;
68680;SDS011;55836;49.858;6.756;2023-06-22T03:14:07;16.70;;;15.03;;
68680;SDS011;55836;49.858;6.756;2023-06-22T03:16:33;14.97;;;13.57;;
68680;SDS011;55836;49.858;6.756;2023-06-22T03:19:00;16.50;;;15.00;;
68680;SDS011;55836;49.858;6.756;2023-06-22T03:21:27;17.97;;;16.17;;
68680;SDS011;55836;49.858;6.756;2023-06-22T03:23:53;20.37;;;18.20;;
68680;SDS011;55836;49.858;6.756;2023-06-22T03:26:19;20.17;;;18.20;;
68680;SDS011;55836;49.858;6.756;2023-06-22T03:28:46;21.73;;;18.43;;
68680;SDS011;55836;49.858;6.756;2023-06-22T03:31:12;20.30;;;18.20;;
68680;SDS011;55836;49.858;6.756;2023-06-22T03:33:38;20.97;;;18.90;;
68680;SDS011;55836;49.858;6.756;2023-06-22T03:36:04;21.27;;;19.27;;
68680;SDS011;55836;49.858;6.756;2023-06-22T03:38:30;22.80;;;20.60;;
68680;SDS011;55836;49.858;6.756;2023-06-22T03:40:56;23.27;;;19.97;;
68680;SDS011;55836;49.858;6.756;2023-06-22T03:43:22;20.27;;;18.40;;
68680;SDS011;55836;49.858;6.756;2023-06-22T03:45:48;22.20;;;19.90;;
68680;SDS011;55836;49.858;6.756;2023-06-22T03:48:15;19.80;;;17.77;;
68680;SDS011;55836;49.858;6.756;2023-06-22T03:50:41;19.97;;;17.87;;
68680;SDS011;55836;49.858;6.756;2023-06-22T03:53:08;19.47;;;17.57;;
68680;SDS011;55836;49.858;6.756;2023-06-22T03:55:35;16.33;;;14.83;;
68680;SDS011;55836;49.858;6.756;2023-06-22T03:58:01;17.70;;;15.87;;
68680;SDS011;55836;49.858;6.756;2023-06-22T04:00:31;16.77;;;15.07;;
68680;SDS011;55836;49.858;6.756;2023-06-22T04:02:57;18.73;;;16.77;;
68680;SDS011;55836;49.858;6.756;2023-06-22T04:05:23;16.83;;;15.33;;
68680;SDS011;55836;49.858;6.756;2023-06-22T04:07:49;17.43;;;15.90;;
68680;SDS011;55836;49.858;6.756;2023-06-22T04:10:15;14.40;;;13.00;;
68680;SDS011;55836;49.858;6.756;2023-06-22T04:12:41;16.07;;;14.03;;
68680;SDS011;55836;49.858;6.756;2023-06-22T04:15:07;15.20;;;13.53;;
68680;SDS011;55836;49.858;6.756;2023-06-22T04:17:33;14.83;;;13.37;;
68680;SDS011;55836;49.858;6.756;2023-06-22T04:20:00;14.23;;;12.93;;
68680;SDS011;55836;49.858;6.756;2023-06-22T04:22:26;15.90;;;14.17;;
68680;SDS011;55836;49.858;6.756;2023-06-22T04:24:52;15.13;;;13.63;;
68680;SDS011;55836;49.858;6.756;2023-06-22T04:27:18;14.97;;;13.57;;
68680;SDS011;55836;49.858;6.756;2023-06-22T04:29:44;14.83;;;13.33;;
68680;SDS011;55836;49.858;6.756;2023-06-22T04:32:14;15.10;;;13.70;;
68680;SDS011;55836;49.858;6.756;2023-06-22T04:34:41;14.37;;;12.97;;
68680;SDS011;55836;49.858;6.756;2023-06-22T04:37:07;14.10;;;12.80;;
68680;SDS011;55836;49.858;6.756;2023-06-22T04:39:33;14.97;;;13.43;;
68680;SDS011;55836;49.858;6.756;2023-06-22T04:41:59;13.60;;;12.20;;
68680;SDS011;55836;49.858;6.756;2023-06-22T04:44:25;14.53;;;13.10;;
68680;SDS011;55836;49.858;6.756;2023-06-22T04:46:56;13.20;;;11.90;;
68680;SDS011;55836;49.858;6.756;2023-06-22T04:49:27;12.80;;;11.63;;
68680;SDS011;55836;49.858;6.756;2023-06-22T04:52:04;13.47;;;11.33;;
68680;SDS011;55836;49.858;6.756;2023-06-22T04:54:31;12.40;;;11.07;;
68680;SDS011;55836;49.858;6.756;2023-06-22T04:57:00;12.20;;;11.10;;
68680;SDS011;55836;49.858;6.756;2023-06-22T04:59:27;12.50;;;11.33;;
68680;SDS011;55836;49.858;6.756;2023-06-22T05:01:57;12.07;;;10.93;;
68680;SDS011;55836;49.858;6.756;2023-06-22T05:04:24;10.23;;;9.27;;
68680;SDS011;55836;49.858;6.756;2023-06-22T05:06:50;11.13;;;10.03;;
68680;SDS011;55836;49.858;6.756;2023-06-22T05:09:16;11.47;;;9.70;;
68680;SDS011;55836;49.858;6.756;2023-06-22T05:11:43;11.10;;;10.03;;
68680;SDS011;55836;49.858;6.756;2023-06-22T05:14:09;11.50;;;10.47;;
68680;SDS011;55836;49.858;6.756;2023-06-22T05:16:36;11.53;;;10.40;;
68680;SDS011;55836;49.858;6.756;2023-06-22T05:19:02;10.47;;;9.37;;
68680;SDS011;55836;49.858;6.756;2023-06-22T05:21:31;11.30;;;10.13;;
68680;SDS011;55836;49.858;6.756;2023-06-22T05:23:57;11.53;;;9.70;;
68680;SDS011;55836;49.858;6.756;2023-06-22T05:26:27;11.17;;;10.00;;
68680;SDS011;55836;49.858;6.756;2023-06-22T05:28:54;11.80;;;10.67;;
68680;SDS011;55836;49.858;6.756;2023-06-22T05:31:20;12.83;;;10.93;;
68680;SDS011;55836;49.858;6.756;2023-06-22T05:33:46;11.20;;;10.13;;
68680;SDS011;55836;49.858;6.756;2023-06-22T05:36:13;12.70;;;11.47;;
68680;SDS011;55836;49.858;6.756;2023-06-22T05:38:40;11.70;;;10.50;;
68680;SDS011;55836;49.858;6.756;2023-06-22T05:41:06;13.40;;;11.17;;
68680;SDS011;55836;49.858;6.756;2023-06-22T05:43:32;12.60;;;11.37;;
68680;SDS011;55836;49.858;6.756;2023-06-22T05:45:59;12.77;;;11.27;;
68680;SDS011;55836;49.858;6.756;2023-06-22T05:48:25;12.53;;;11.43;;
68680;SDS011;55836;49.858;6.756;2023-06-22T05:50:51;12.23;;;11.03;;
68680;SDS011;55836;49.858;6.756;2023-06-22T05:53:17;12.10;;;10.90;;
68680;SDS011;55836;49.858;6.756;2023-06-22T05:55:43;12.23;;;11.13;;
68680;SDS011;55836;49.858;6.756;2023-06-22T05:58:09;14.37;;;12.13;;
68680;SDS011;55836;49.858;6.756;2023-06-22T06:00:35;13.63;;;11.70;;
68680;SDS011;55836;49.858;6.756;2023-06-22T06:03:02;11.97;;;10.87;;
68680;SDS011;55836;49.858;6.756;2023-06-22T06:05:29;13.40;;;11.47;;
68680;SDS011;55836;49.858;6.756;2023-06-22T06:07:55;12.57;;;11.40;;
68680;SDS011;55836;49.858;6.756;2023-06-22T06:10:21;12.60;;;11.30;;
68680;SDS011;55836;49.858;6.756;2023-06-22T06:12:47;14.23;;;12.43;;
68680;SDS011;55836;49.858;6.756;2023-06-22T06:15:13;14.97;;;10.73;;
68680;SDS011;55836;49.858;6.756;2023-06-22T06:17:46;12.50;;;11.27;;
68680;SDS011;55836;49.858;6.756;2023-06-22T06:20:12;11.73;;;9.87;;
68680;SDS011;55836;49.858;6.756;2023-06-22T06:22:38;11.07;;;10.07;;
68680;SDS011;55836;49.858;6.756;2023-06-22T06:25:05;11.50;;;10.40;;
68680;SDS011;55836;49.858;6.756;2023-06-22T06:27:31;11.47;;;10.27;;
68680;SDS011;55836;49.858;6.756;2023-06-22T06:29:57;11.60;;;9.70;;
68680;SDS011;55836;49.858;6.756;2023-06-22T06:32:23;11.53;;;10.37;;
68680;SDS011;55836;49.858;6.756;2023-06-22T06:34:49;10.90;;;9.80;;
68680;SDS011;55836;49.858;6.756;2023-06-22T06:37:15;10.30;;;9.40;;
68680;SDS011;55836;49.858;6.756;2023-06-22T06:39:41;11.27;;;10.17;;
68680;SDS011;55836;49.858;6.756;2023-06-22T06:42:07;10.73;;;9.73;;
68680;SDS011;55836;49.858;6.756;2023-06-22T06:44:33;10.33;;;9.33;;
68680;SDS011;55836;49.858;6.756;2023-06-22T06:47:00;10.57;;;9.63;;
68680;SDS011;55836;49.858;6.756;2023-06-22T06:49:26;11.40;;;9.83;;
68680;SDS011;55836;49.858;6.756;2023-06-22T06:51:52;10.97;;;9.80;;
68680;SDS011;55836;49.858;6.756;2023-06-22T06:54:18;10.20;;;9.20;;
68680;SDS011;55836;49.858;6.756;2023-06-22T06:56:45;10.60;;;9.50;;
68680;SDS011;55836;49.858;6.756;2023-06-22T06:59:13;10.23;;;9.33;;
68680;SDS011;55836;49.858;6.756;2023-06-22T07:01:40;10.07;;;9.07;;
68680;SDS011;55836;49.858;6.756;2023-06-22T07:04:06;12.10;;;9.80;;
68680;SDS011;55836;49.858;6.756;2023-06-22T07:06:32;10.63;;;9.47;;
68680;SDS011;55836;49.858;6.756;2023-06-22T07:08:59;10.27;;;9.10;;
68680;SDS011;55836;49.858;6.756;2023-06-22T07:11:25;10.30;;;9.40;;
68680;SDS011;55836;49.858;6.756;2023-06-22T07:13:51;11.30;;;10.30;;
68680;SDS011;55836;49.858;6.756;2023-06-22T07:16:17;11.10;;;10.10;;
68680;SDS011;55836;49.858;6.756;2023-06-22T07:18:47;9.57;;;8.67;;
68680;SDS011;55836;49.858;6.756;2023-06-22T07:21:13;11.63;;;10.13;;
68680;SDS011;55836;49.858;6.756;2023-06-22T07:23:39;10.77;;;9.43;;
68680;SDS011;55836;49.858;6.756;2023-06-22T07:26:05;11.07;;;9.87;;
68680;SDS011;55836;49.858;6.756;2023-06-22T07:28:33;10.93;;;9.93;;
68680;SDS011;55836;49.858;6.756;2023-06-22T07:31:02;12.10;;;9.73;;
68680;SDS011;55836;49.858;6.756;2023-06-22T07:33:29;11.27;;;10.17;;
68680;SDS011;55836;49.858;6.756;2023-06-22T07:35:55;10.70;;;9.60;;
68680;SDS011;55836;49.858;6.756;2023-06-22T07:38:21;11.10;;;9.47;;
68680;SDS011;55836;49.858;6.756;2023-06-22T07:40:47;10.83;;;9.83;;
68680;SDS011;55836;49.858;6.756;2023-06-22T07:43:13;11.90;;;10.03;;
68680;SDS011;55836;49.858;6.756;2023-06-22T07:45:39;10.87;;;9.50;;
68680;SDS011;55836;49.858;6.756;2023-06-22T07:48:07;10.10;;;9.13;;
68680;SDS011;55836;49.858;6.756;2023-06-22T07:50:33;10.83;;;9.83;;
68680;SDS011;55836;49.858;6.756;2023-06-22T07:52:59;11.60;;;10.60;;
68680;SDS011;55836;49.858;6.756;2023-06-22T07:55:25;11.60;;;9.60;;
68680;SDS011;55836;49.858;6.756;2023-06-22T07:57:51;10.73;;;9.63;;
68680;SDS011;55836;49.858;6.756;2023-06-22T08:00:17;11.80;;;10.80;;
68680;SDS011;55836;49.858;6.756;2023-06-22T08:02:44;14.07;;;11.43;;
68680;SDS011;55836;49.858;6.756;2023-06-22T08:05:11;11.97;;;10.23;;
68680;SDS011;55836;49.858;6.756;2023-06-22T08:07:37;13.10;;;10.13;;
68680;SDS011;55836;49.858;6.756;2023-06-22T08:10:04;10.07;;;9.07;;
68680;SDS011;55836;49.858;6.756;2023-06-22T08:12:30;10.67;;;9.57;;
68680;SDS011;55836;49.858;6.756;2023-06-22T08:14:56;11.30;;;10.20;;
68680;SDS011;55836;49.858;6.756;2023-06-22T08:17:23;10.93;;;9.93;;
68680;SDS011;55836;49.858;6.756;2023-06-22T08:19:49;11.70;;;9.80;;
68680;SDS011;55836;49.858;6.756;2023-06-22T08:22:15;10.63;;;9.53;;
68680;SDS011;55836;49.858;6.756;2023-06-22T08:24:42;10.53;;;9.53;;
68680;SDS011;55836;49.858;6.756;2023-06-22T08:27:08;12.60;;;9.93;;
68680;SDS011;55836;49.858;6.756;2023-06-22T08:29:34;9.70;;;8.73;;
68680;SDS011;55836;49.858;6.756;2023-06-22T08:32:02;10.53;;;9.53;;
68680;SDS011;55836;49.858;6.756;2023-06-22T08:34:28;12.30;;;9.40;;
68680;SDS011;55836;49.858;6.756;2023-06-22T08:36:54;13.03;;;10.13;;
68680;SDS011;55836;49.858;6.756;2023-06-22T08:39:20;11.87;;;9.70;;
68680;SDS011;55836;49.858;6.756;2023-06-22T08:41:49;10.57;;;9.47;;
68680;SDS011;55836;49.858;6.756;2023-06-22T08:44:18;11.17;;;9.33;;
68680;SDS011;55836;49.858;6.756;2023-06-22T08:46:44;12.33;;;10.37;;
68680;SDS011;55836;49.858;6.756;2023-06-22T08:49:10;11.07;;;8.83;;
68680;SDS011;55836;49.858;6.756;2023-06-22T08:51:36;11.60;;;8.93;;
68680;SDS011;55836;49.858;6.756;2023-06-22T08:54:02;10.30;;;9.27;;
68680;SDS011;55836;49.858;6.756;2023-06-22T08:56:28;10.43;;;9.30;;
68680;SDS011;55836;49.858;6.756;2023-06-22T08:58:54;10.57;;;9.57;;
68680;SDS011;55836;49.858;6.756;2023-06-22T09:01:22;11.13;;;9.13;;
68680;SDS011;55836;49.858;6.756;2023-06-22T09:03:48;11.37;;;9.37;;
68680;SDS011;55836;49.858;6.756;2023-06-22T09:06:19;11.27;;;9.50;;
68680;SDS011;55836;49.858;6.756;2023-06-22T09:08:46;9.70;;;8.80;;
68680;SDS011;55836;49.858;6.756;2023-06-22T09:11:12;11.13;;;8.73;;
68680;SDS011;55836;49.858;6.756;2023-06-22T09:13:38;10.87;;;9.47;;
68680;SDS011;55836;49.858;6.756;2023-06-22T09:16:04;10.97;;;9.30;;
68680;SDS011;55836;49.858;6.756;2023-06-22T09:18:31;13.63;;;9.60;;
68680;SDS011;55836;49.858;6.756;2023-06-22T09:20:57;10.10;;;8.87;;
68680;SDS011;55836;49.858;6.756;2023-06-22T09:23:23;15.90;;;9.93;;
68680;SDS011;55836;49.858;6.756;2023-06-22T09:25:49;13.80;;;10.80;;
68680;SDS011;55836;49.858;6.756;2023-06-22T09:28:15;13.60;;;10.93;;
68680;SDS011;55836;49.858;6.756;2023-06-22T09:30:44;13.90;;;11.47;;
68680;SDS011;55836;49.858;6.756;2023-06-22T09:33:10;15.43;;;11.87;;
68680;SDS011;55836;49.858;6.756;2023-06-22T09:35:36;12.97;;;11.70;;
68680;SDS011;55836;49.858;6.756;2023-06-22T09:38:02;14.53;;;12.77;;
68680;SDS011;55836;49.858;6.756;2023-06-22T09:40:28;16.07;;;13.97;;
68680;SDS011;55836;49.858;6.756;2023-06-22T09:42:54;15.90;;;14.30;;
68680;SDS011;55836;49.858;6.756;2023-06-22T09:45:21;13.90;;;12.50;;
68680;SDS011;55836;49.858;6.756;2023-06-22T09:47:47;17.27;;;14.50;;
68680;SDS011;55836;49.858;6.756;2023-06-22T09:50:13;17.33;;;15.60;;
68680;SDS011;55836;49.858;6.756;2023-06-22T09:52:39;15.33;;;13.83;;
68680;SDS011;55836;49.858;6.756;2023-06-22T09:55:07;15.33;;;13.83;;
68680;SDS011;55836;49.858;6.756;2023-06-22T09:57:33;15.40;;;13.90;;
68680;SDS011;55836;49.858;6.756;2023-06-22T09:59:59;14.70;;;13.30;;
68680;SDS011;55836;49.858;6.756;2023-06-22T10:02:25;15.60;;;14.10;;
68680;SDS011;55836;49.858;6.756;2023-06-22T10:04:51;15.97;;;14.33;;
68680;SDS011;55836;49.858;6.756;2023-06-22T10:07:17;15.63;;;14.13;;
68680;SDS011;55836;49.858;6.756;2023-06-22T10:09:43;17.03;;;15.30;;
68680;SDS011;55836;49.858;6.756;2023-06-22T10:12:09;17.63;;;15.73;;
68680;SDS011;55836;49.858;6.756;2023-06-22T10:14:35;17.00;;;15.27;;
68680;SDS011;55836;49.858;6.756;2023-06-22T10:17:02;16.37;;;14.67;;
68680;SDS011;55836;49.858;6.756;2023-06-22T10:19:28;16.17;;;14.67;;
68680;SDS011;55836;49.858;6.756;2023-06-22T10:21:54;15.17;;;13.57;;
68680;SDS011;55836;49.858;6.756;2023-06-22T10:24:20;14.50;;;13.10;;
68680;SDS011;55836;49.858;6.756;2023-06-22T10:26:46;15.43;;;13.73;;
68680;SDS011;55836;49.858;6.756;2023-06-22T10:29:12;15.03;;;13.50;;
68680;SDS011;55836;49.858;6.756;2023-06-22T10:31:38;14.13;;;11.93;;
68680;SDS011;55836;49.858;6.756;2023-06-22T10:34:04;13.53;;;12.13;;
68680;SDS011;55836;49.858;6.756;2023-06-22T10:36:30;14.97;;;13.10;;
68680;SDS011;55836;49.858;6.756;2023-06-22T10:38:56;15.00;;;11.23;;
68680;SDS011;55836;49.858;6.756;2023-06-22T10:41:24;11.77;;;10.57;;
68680;SDS011;55836;49.858;6.756;2023-06-22T10:43:50;11.03;;;10.03;;
68680;SDS011;55836;49.858;6.756;2023-06-22T10:46:16;11.30;;;10.20;;
68680;SDS011;55836;49.858;6.756;2023-06-22T10:48:42;11.90;;;10.80;;
68680;SDS011;55836;49.858;6.756;2023-06-22T10:51:08;10.53;;;9.63;;
68680;SDS011;55836;49.858;6.756;2023-06-22T10:53:34;11.13;;;10.03;;
68680;SDS011;55836;49.858;6.756;2023-06-22T10:56:00;11.37;;;10.23;;
68680;SDS011;55836;49.858;6.756;2023-06-22T10:58:26;11.63;;;9.73;;
68680;SDS011;55836;49.858;6.756;2023-06-22T11:00:52;11.00;;;9.87;;
68680;SDS011;55836;49.858;6.756;2023-06-22T11:03:18;10.47;;;9.50;;
68680;SDS011;55836;49.858;6.756;2023-06-22T11:05:44;10.80;;;9.80;;
68680;SDS011;55836;49.858;6.756;2023-06-22T11:08:12;11.70;;;10.50;;
68680;SDS011;55836;49.858;6.756;2023-06-22T11:10:38;10.47;;;9.37;;
68680;SDS011;55836;49.858;6.756;2023-06-22T11:13:04;13.00;;;10.03;;
68680;SDS011;55836;49.858;6.756;2023-06-22T11:15:38;10.90;;;9.37;;
68680;SDS011;55836;49.858;6.756;2023-06-22T11:18:04;10.27;;;9.27;;
68680;SDS011;55836;49.858;6.756;2023-06-22T11:20:32;10.83;;;9.83;;
68680;SDS011;55836;49.858;6.756;2023-06-22T11:22:59;11.37;;;10.27;;
68680;SDS011;55836;49.858;6.756;2023-06-22T11:25:25;10.53;;;9.53;;
68680;SDS011;55836;49.858;6.756;2023-06-22T11:27:51;10.40;;;9.50;;
68680;SDS011;55836;49.858;6.756;2023-06-22T11:30:18;10.67;;;9.63;;
68680;SDS011;55836;49.858;6.756;2023-06-22T11:32:44;10.37;;;9.47;;
68680;SDS011;55836;49.858;6.756;2023-06-22T11:35:10;10.50;;;9.57;;
68680;SDS011;55836;49.858;6.756;2023-06-22T11:37:37;11.03;;;9.93;;
68680;SDS011;55836;49.858;6.756;2023-06-22T11:40:03;12.33;;;11.07;;
68680;SDS011;55836;49.858;6.756;2023-06-22T11:42:30;10.67;;;9.77;;
68680;SDS011;55836;49.858;6.756;2023-06-22T11:44:56;11.53;;;10.33;;
68680;SDS011;55836;49.858;6.756;2023-06-22T11:47:22;11.77;;;10.47;;
68680;SDS011;55836;49.858;6.756;2023-06-22T11:49:48;10.70;;;9.70;;
68680;SDS011;55836;49.858;6.756;2023-06-22T11:52:14;10.97;;;9.87;;
68680;SDS011;55836;49.858;6.756;2023-06-22T11:54:42;13.43;;;10.67;;
68680;SDS011;55836;49.858;6.756;2023-06-22T11:57:08;11.97;;;9.73;;
68680;SDS011;55836;49.858;6.756;2023-06-22T11:59:34;9.83;;;8.93;;
68680;SDS011;55836;49.858;6.756;2023-06-22T12:02:00;11.37;;;10.27;;
68680;SDS011;55836;49.858;6.756;2023-06-22T12:04:26;10.60;;;9.63;;
68680;SDS011;55836;49.858;6.756;2023-06-22T12:06:52;12.53;;;10.07;;
68680;SDS011;55836;49.858;6.756;2023-06-22T12:09:18;11.17;;;10.07;;
68680;SDS011;55836;49.858;6.756;2023-06-22T12:11:44;10.17;;;9.17;;
68680;SDS011;55836;49.858;6.756;2023-06-22T12:14:10;10.63;;;9.53;;
68680;SDS011;55836;49.858;6.756;2023-06-22T12:16:36;10.67;;;9.57;;
68680;SDS011;55836;49.858;6.756;2023-06-22T12:19:02;11.20;;;10.13;;
68680;SDS011;55836;49.858;6.756;2023-06-22T12:21:28;11.67;;;10.40;;
68680;SDS011;55836;49.858;6.756;2023-06-22T12:23:54;10.53;;;9.53;;
68680;SDS011;55836;49.858;6.756;2023-06-22T12:26:21;11.07;;;9.97;;
68680;SDS011;55836;49.858;6.756;2023-06-22T12:28:47;11.53;;;10.33;;
68680;SDS011;55836;49.858;6.756;2023-06-22T12:31:13;11.30;;;10.23;;
68680;SDS011;55836;49.858;6.756;2023-06-22T12:33:39;10.57;;;9.57;;
68680;SDS011;55836;49.858;6.756;2023-06-22T12:36:06;10.67;;;9.67;;
68680;SDS011;55836;49.858;6.756;2023-06-22T12:38:32;10.53;;;9.53;;
68680;SDS011;55836;49.858;6.756;2023-06-22T12:40:58;11.53;;;9.90;;
68680;SDS011;55836;49.858;6.756;2023-06-22T12:43:24;11.10;;;10.20;;
68680;SDS011;55836;49.858;6.756;2023-06-22T12:45:51;10.47;;;9.30;;
68680;SDS011;55836;49.858;6.756;2023-06-22T12:48:18;12.60;;;10.10;;
68680;SDS011;55836;49.858;6.756;2023-06-22T12:50:44;10.50;;;9.50;;
68680;SDS011;55836;49.858;6.756;2023-06-22T12:53:10;12.27;;;10.43;;
68680;SDS011;55836;49.858;6.756;2023-06-22T12:55:36;9.97;;;9.07;;
68680;SDS011;55836;49.858;6.756;2023-06-22T12:58:02;10.83;;;9.70;;
68680;SDS011;55836;49.858;6.756;2023-06-22T13:00:28;10.37;;;9.37;;
68680;SDS011;55836;49.858;6.756;2023-06-22T13:02:54;10.80;;;9.80;;
68680;SDS011;55836;49.858;6.756;2023-06-22T13:05:20;10.90;;;9.10;;
68680;SDS011;55836;49.858;6.756;2023-06-22T13:07:46;10.17;;;9.17;;
68680;SDS011;55836;49.858;6.756;2023-06-22T13:10:12;11.90;;;9.87;;
68680;SDS011;55836;49.858;6.756;2023-06-22T13:12:38;11.63;;;9.53;;
68680;SDS011;55836;49.858;6.756;2023-06-22T13:15:04;10.03;;;9.13;;
68680;SDS011;55836;49.858;6.756;2023-06-22T13:17:30;10.87;;;8.93;;
68680;SDS011;55836;49.858;6.756;2023-06-22T13:19:56;11.97;;;9.43;;
68680;SDS011;55836;49.858;6.756;2023-06-22T13:22:26;9.80;;;9.00;;
68680;SDS011;55836;49.858;6.756;2023-06-22T13:24:53;11.73;;;7.47;;
68680;SDS011;55836;49.858;6.756;2023-06-22T13:27:19;17.27;;;9.73;;
68680;SDS011;55836;49.858;6.756;2023-06-22T13:29:45;14.27;;;9.30;;
68680;SDS011;55836;49.858;6.756;2023-06-22T13:32:11;11.00;;;9.87;;
68680;SDS011;55836;49.858;6.756;2023-06-22T13:34:37;12.37;;;11.07;;
68680;SDS011;55836;49.858;6.756;2023-06-22T13:37:03;13.77;;;12.33;;
68680;SDS011;55836;49.858;6.756;2023-06-22T13:39:29;28.10;;;7.67;;
68680;SDS011;55836;49.858;6.756;2023-06-22T13:41:56;14.03;;;5.93;;
68680;SDS011;55836;49.858;6.756;2023-06-22T13:44:22;10.60;;;7.57;;
68680;SDS011;55836;49.858;6.756;2023-06-22T13:46:48;10.17;;;6.13;;
68680;SDS011;55836;49.858;6.756;2023-06-22T13:49:14;15.83;;;6.30;;
68680;SDS011;55836;49.858;6.756;2023-06-22T13:51:40;13.87;;;7.23;;
68680;SDS011;55836;49.858;6.756;2023-06-22T13:54:06;11.97;;;6.13;;
68680;SDS011;55836;49.858;6.756;2023-06-22T13:56:32;12.70;;;5.07;;
68680;SDS011;55836;49.858;6.756;2023-06-22T13:58:58;11.70;;;5.07;;
68680;SDS011;55836;49.858;6.756;2023-06-22T14:01:24;19.37;;;5.47;;
68680;SDS011;55836;49.858;6.756;2023-06-22T14:03:50;11.30;;;5.83;;
68680;SDS011;55836;49.858;6.756;2023-06-22T14:06:16;11.97;;;5.80;;
68680;SDS011;55836;49.858;6.756;2023-06-22T14:08:42;14.80;;;5.40;;
68680;SDS011;55836;49.858;6.756;2023-06-22T14:11:08;14.43;;;5.47;;
68680;SDS011;55836;49.858;6.756;2023-06-22T14:13:34;15.07;;;5.90;;
68680;SDS011;55836;49.858;6.756;2023-06-22T14:16:00;11.73;;;5.93;;
68680;SDS011;55836;49.858;6.756;2023-06-22T14:18:26;16.07;;;6.47;;
68680;SDS011;55836;49.858;6.756;2023-06-22T14:20:52;14.00;;;5.97;;
68680;SDS011;55836;49.858;6.756;2023-06-22T14:23:18;8.50;;;5.03;;
68680;SDS011;55836;49.858;6.756;2023-06-22T14:25:44;9.90;;;5.00;;